SAWE

Hermes Quijada International Airport

Rio Grande, Argentina
TAF SAWE 170500Z 1706/1806 25012KT 9999 FEW030 SCT080 TX14/1719Z TN02/1710Z TEMPO 1706/1709 9000 -RA BKN040 BECMG 1715/1717 32018KT BECMG 1803/1805 32020KT -RA BKN030 BKN050
Issued Valid From Valid To
Nov-17 @ 05:00 UTC
(4 hours ago)
Nov-17 @ 06:00 UTC
(3 hours ago)
Nov-18 @ 06:00 UTC
(in 21 hours)
Nov-17 @ 06:00 to Nov-17 @ 15:00
TAF SAWE 170500Z 1706/1806 25012KT 9999 FEW030 SCT080 TX14/1719Z TN02/1710Z
Wind Visibility Clouds
250° at 12 knots 10,000+ meters
  • Few at 3,000' AGL
  • Scattered at 8,000' AGL
Expired Click to View Nov-17 @ 06:00 to Nov-17 @ 09:00
TEMPO 1706/1709 9000 -RA BKN040
Visibility Clouds Conditions
8,996 meters
  • Broken at 4,000' AGL
  • Light Rain
Becoming Nov-17 @ 15:00 to Nov-18 @ 03:00
BECMG 1715/1717 32018KT
Wind Visibility Clouds
320° at 18 knots 10,000+ meters
  • Few at 3,000' AGL
  • Scattered at 8,000' AGL
Becoming Nov-18 @ 03:00 to Nov-18 @ 06:00
BECMG 1803/1805 32020KT -RA BKN030 BKN050
Wind Visibility Clouds Conditions
320° at 20 knots 10,000+ meters
  • Broken at 3,000' AGL
  • Broken at 5,000' AGL
  • Light Rain
TAF SAWE 170500Z 1706/1806 25012KT 9999 FEW030 SCT080 TX14/1719Z TN02/1710Z TEMPO 1706/1709 9000 -RA BKN040 BECMG 1715/1717 32018KT BECMG 1803/1805 32020KT -RA BKN030 BKN050
Issued Nov-17 @ 05:00 UTC
(4 hours ago)
Valid From Nov-17 @ 06:00 UTC
(3 hours ago)
Valid To Nov-18 @ 06:00 UTC
(in 21 hours)
Nov-17 @ 06:00 - Nov-17 @ 15:00
Wind Visibility
250° at 12 knots 10,000+ meters
Clouds
  • Few at 3,000' AGL
  • Scattered at 8,000' AGL
Nov-17 @ 06:00 - Nov-17 @ 09:00
Clouds
  • Broken at 4,000' AGL
Conditions
  • Light Rain
Becoming Nov-17 @ 15:00 - Nov-18 @ 03:00
Wind Visibility
320° at 18 knots 10,000+ meters
Clouds
  • Few at 3,000' AGL
  • Scattered at 8,000' AGL
Becoming Nov-18 @ 03:00 - Nov-18 @ 06:00
Wind Visibility
320° at 20 knots 10,000+ meters
Clouds
  • Broken at 3,000' AGL
  • Broken at 5,000' AGL
Conditions
  • Light Rain